You are listening to:
KCUB CTAF - Columbia, South Carolina, United States

KCUB 230953Z AUTO 00000KT 10SM CLR 06/04 A3022 RMK AO2 SLP231 T00560044

If stream doesn't start automatically press the play button
If stream stops then reload player then press play